createdAt,value
2022-08-03T03:35:10.808Z,16.34
2022-08-03T03:40:12.967Z,16.34
2022-08-03T03:45:14.676Z,16.27
2022-08-03T03:50:17.260Z,16.27
2022-08-03T03:55:19.064Z,16.18
2022-08-03T04:00:21.408Z,16.18
2022-08-03T04:05:23.116Z,16.18
2022-08-03T04:10:27.590Z,16.18
2022-08-03T04:15:30.578Z,16.23
2022-08-03T04:20:34.365Z,16.23
2022-08-03T04:25:36.392Z,16.64
2022-08-03T04:30:39.211Z,16.64
2022-08-03T04:35:59.747Z,16.37
2022-08-03T04:40:48.598Z,16.56
2022-08-03T04:45:50.956Z,16.56
2022-08-03T04:50:52.963Z,16.73
2022-08-03T04:55:54.813Z,16.73
2022-08-03T05:00:56.529Z,16.82
2022-08-03T05:06:02.068Z,16.82
2022-08-03T05:11:04.063Z,17.32
2022-08-03T05:16:05.866Z,17.32
2022-08-03T05:21:08.279Z,17.83
2022-08-03T05:26:10.018Z,17.83
2022-08-03T05:31:11.711Z,18.46
2022-08-03T05:36:13.544Z,18.46
2022-08-03T05:41:23.086Z,18.9
2022-08-03T05:46:21.407Z,18.9
2022-08-03T05:51:23.079Z,19.28
2022-08-03T05:56:24.750Z,19.65
2022-08-03T06:01:26.702Z,19.65
2022-08-03T06:06:32.145Z,20.28
2022-08-03T06:11:34.055Z,20.28
2022-08-03T06:16:35.861Z,20.62
2022-08-03T06:21:37.741Z,20.62
2022-08-03T06:26:43.672Z,21.38
2022-08-03T06:31:45.384Z,21.38
2022-08-03T06:36:47.084Z,22.22
2022-08-03T06:41:48.795Z,22.22
2022-08-03T06:46:50.640Z,22.25
2022-08-03T06:52:02.966Z,22.25
2022-08-03T06:56:58.085Z,21.69
2022-08-03T07:02:00.008Z,21.69
2022-08-03T07:07:03.076Z,21.32
2022-08-03T07:12:05.088Z,21.32
2022-08-03T07:17:11.573Z,21.44
2022-08-03T07:22:12.759Z,21.91
2022-08-03T07:27:14.891Z,21.91
2022-08-03T07:32:17.000Z,24.99
2022-08-03T07:37:20.591Z,24.99
2022-08-03T07:42:22.374Z,24.93
2022-08-03T07:47:25.252Z,24.93
2022-08-03T07:52:31.478Z,24.84
2022-08-03T07:57:33.822Z,24.84
2022-08-03T08:02:35.482Z,25.09
2022-08-03T08:07:37.380Z,25.09
2022-08-03T08:12:39.384Z,27.6
2022-08-03T08:17:41.785Z,27.6
2022-08-03T08:22:43.795Z,28.18
2022-08-03T08:28:21.732Z,28.18
2022-08-03T08:32:54.791Z,28.57
2022-08-03T08:37:58.830Z,27.52
2022-08-03T08:43:04.496Z,27.52
2022-08-03T08:48:09.710Z,26.57
2022-08-03T08:53:15.573Z,26.57
2022-08-03T08:58:19.800Z,26.45
2022-08-03T09:03:28.966Z,26.45
2022-08-03T09:08:29.356Z,28.99
2022-08-03T09:13:32.302Z,28.99
2022-08-03T09:18:34.174Z,29.06
2022-08-03T09:28:53.983Z,25.93
2022-08-03T09:33:48.647Z,25.93
2022-08-03T09:43:55.803Z,26.1
2022-08-03T09:54:15.184Z,25.82
2022-08-03T10:04:19.075Z,25.45
2022-08-03T10:09:20.990Z,25.45
2022-08-03T10:14:23.102Z,25.71
2022-08-03T10:19:24.801Z,25.71
2022-08-03T10:24:28.561Z,28.11
2022-08-03T10:29:32.705Z,28.11
2022-08-03T10:34:38.382Z,26.84
2022-08-03T10:39:46.162Z,26.84
2022-08-03T10:44:48.699Z,26.93
2022-08-03T10:49:51.069Z,26.65
2022-08-03T10:54:53.425Z,26.65
2022-08-03T10:59:56.883Z,26.98
2022-08-03T11:15:11.545Z,28.46
2022-08-03T11:20:13.285Z,28.11
2022-08-03T11:25:41.056Z,28.11
2022-08-03T11:30:22.958Z,27.27
2022-08-03T11:35:30.320Z,27.27
2022-08-03T11:40:32.613Z,29.24
2022-08-03T11:45:34.814Z,29.24
2022-08-03T11:50:36.578Z,29.2
2022-08-03T11:55:38.707Z,29.2
2022-08-03T12:00:40.870Z,28.63
2022-08-03T12:05:48.073Z,29.7
2022-08-03T12:10:50.568Z,29.7
2022-08-03T12:15:54.002Z,28.99
2022-08-03T12:26:02.707Z,30.75
2022-08-03T12:31:05.282Z,30.75
2022-08-03T12:36:07.850Z,32.56
2022-08-03T12:41:10.428Z,32.56
2022-08-03T12:46:13.213Z,29.89
2022-08-03T12:51:15.010Z,29.89
2022-08-03T12:56:16.785Z,29.73
2022-08-03T13:01:18.812Z,29.73
2022-08-03T13:06:24.633Z,29.23
2022-08-03T13:11:47.591Z,29.23
2022-08-03T13:16:33.148Z,32.38
2022-08-03T13:21:34.959Z,33.53
2022-08-03T13:26:40.927Z,33.53
2022-08-03T13:31:50.353Z,32.65
2022-08-03T13:37:07.785Z,32.65
2022-08-03T13:41:54.090Z,32.8
2022-08-03T13:46:55.820Z,32.8
2022-08-03T13:51:57.922Z,32.13
2022-08-03T13:58:01.752Z,32.13
2022-08-03T14:02:05.677Z,32.38
2022-08-03T14:07:07.518Z,32.38
2022-08-03T14:12:09.438Z,29.5
2022-08-03T14:17:11.279Z,29.5
2022-08-03T14:22:17.709Z,29.6
2022-08-03T14:27:19.382Z,33.09
2022-08-03T14:32:21.911Z,33.09
2022-08-03T14:37:23.678Z,34.68
2022-08-03T14:42:25.311Z,34.68
2022-08-03T14:47:27.393Z,35.23
2022-08-03T14:52:29.233Z,35.23
2022-08-03T14:57:31.081Z,35.24
2022-08-03T15:02:32.830Z,35.24
2022-08-03T15:07:34.911Z,34.05
2022-08-03T15:12:36.670Z,34.05
2022-08-03T15:17:38.425Z,33.31
2022-08-03T15:22:48.992Z,33.31
2022-08-03T15:28:03.192Z,33.97
2022-08-03T15:32:56.740Z,33.97
2022-08-03T15:37:58.835Z,33.01
2022-08-03T15:43:00.739Z,32.18
2022-08-03T15:48:02.834Z,32.18
2022-08-03T15:53:04.621Z,33.78
2022-08-03T15:58:59.249Z,33.78
2022-08-03T16:03:12.026Z,32.9
2022-08-03T16:08:14.076Z,32.9
2022-08-03T16:13:16.019Z,31.17
2022-08-03T16:18:17.794Z,31.17
2022-08-03T16:23:19.506Z,29.56
2022-08-03T16:28:22.461Z,29.56
2022-08-03T16:33:24.316Z,29.1
2022-08-03T16:38:25.980Z,29.1
2022-08-03T16:43:27.767Z,29.31
2022-08-03T16:48:29.664Z,29.31
2022-08-03T16:53:33.454Z,29.67
2022-08-03T16:58:41.938Z,29.25
2022-08-03T17:03:43.404Z,29.25
2022-08-03T17:08:55.340Z,29.31
2022-08-03T17:13:54.959Z,29.31
2022-08-03T17:19:02.311Z,29.63
2022-08-03T17:24:12.218Z,29.63
2022-08-03T17:29:16.725Z,29.7
2022-08-03T17:34:19.364Z,29.7
2022-08-03T17:39:48.759Z,28.78
2022-08-03T17:44:37.601Z,28.78
2022-08-03T17:49:39.915Z,27.42
2022-08-03T17:54:49.118Z,27.42
2022-08-03T17:59:54.635Z,26.58
2022-08-03T18:05:01.231Z,25.87
2022-08-03T18:10:10.912Z,25.87
2022-08-03T18:15:22.327Z,24.94
2022-08-03T18:20:32.461Z,24.94
2022-08-03T18:25:43.162Z,24.03
2022-08-03T18:30:53.839Z,24.03
2022-08-03T18:35:52.729Z,23.42
2022-08-03T18:40:53.815Z,23.42
2022-08-03T18:46:01.611Z,22.83
2022-08-03T18:51:09.716Z,22.83
2022-08-03T18:56:22.528Z,22.25
2022-08-03T19:01:58.867Z,22.06
2022-08-03T19:06:37.770Z,22.06
2022-08-03T19:12:11.701Z,21.72
2022-08-03T19:16:51.728Z,21.72
2022-08-03T19:21:55.604Z,21.41
2022-08-03T19:26:58.796Z,21.41
2022-08-03T19:32:05.872Z,21.06
2022-08-03T19:37:10.175Z,21.06
2022-08-03T19:42:23.040Z,20.68
2022-08-03T19:47:33.202Z,20.68
2022-08-03T19:52:38.712Z,20.53
2022-08-03T19:57:43.244Z,20.2
2022-08-03T20:02:50.796Z,20.2
2022-08-03T20:07:54.516Z,20.01
2022-08-03T20:13:00.218Z,20.01
2022-08-03T20:18:14.752Z,19.92
2022-08-03T20:23:16.454Z,19.92
2022-08-03T20:28:22.689Z,19.8
2022-08-03T20:33:46.020Z,19.8
2022-08-03T20:38:40.883Z,19.87
2022-08-03T20:43:42.152Z,19.87
2022-08-03T20:48:48.517Z,19.67
2022-08-03T20:53:57.507Z,19.67
2022-08-03T20:58:59.005Z,19.67
2022-08-03T21:04:06.864Z,19.67
2022-08-03T21:09:17.244Z,19.67
2022-08-03T21:14:22.276Z,19.67
2022-08-03T21:19:25.016Z,19.67
2022-08-03T21:24:27.631Z,19.67
2022-08-03T21:29:29.723Z,19.67
2022-08-03T21:34:33.394Z,19.67
2022-08-03T21:39:35.419Z,19.67
